Time;durP1;ratioP1;P1;durP2;ratioP2;P2;SDS_P1;SDS_P2;PMS_P1;PMS_P2;Temp;Humidity;BMP_temperature;BMP_pressure;BME280_temperature;BME280_humidity;BME280_pressure;Samples;Min_cycle;Max_cycle;Signal;HPM_P1;HPM_P2
2023/12/25 00:02:13;;;;;;;7.25;1.67;;;;;;;;;;5068264;28;41684;-73
2023/12/25 00:04:42;;;;;;;3.50;0.95;;;;;;;;;;5053369;28;42617;-71
2023/12/25 00:07:11;;;;;;;5.05;1.60;;;;;;;;;;5057681;28;42072;-72
2023/12/25 00:09:39;;;;;;;5.95;1.42;;;;;;;;;;5065880;28;40966;-71
2023/12/25 00:12:07;;;;;;;4.10;1.50;;;;;;;;;;5062857;28;41862;-72
2023/12/25 00:14:36;;;;;;;6.30;1.80;;;;;;;;;;5064321;28;41676;-71
2023/12/25 00:17:04;;;;;;;6.28;1.63;;;;;;;;;;5069291;28;41473;-71
2023/12/25 00:19:32;;;;;;;4.78;1.40;;;;;;;;;;5067669;28;42061;-71
2023/12/25 00:22:00;;;;;;;5.93;1.88;;;;;;;;;;5068823;28;41177;-71
2023/12/25 00:24:28;;;;;;;5.40;1.40;;;;;;;;;;5066621;28;41641;-71
2023/12/25 00:26:56;;;;;;;7.65;1.85;;;;;;;;;;5055687;28;42694;-72
2023/12/25 00:29:24;;;;;;;8.57;1.55;;;;;;;;;;5068922;28;40946;-72
2023/12/25 00:31:54;;;;;;;3.85;1.27;;;;;;;;;;5065769;28;42261;-71
2023/12/25 00:34:22;;;;;;;7.65;1.50;;;;;;;;;;5068564;28;42312;-71
2023/12/25 00:36:50;;;;;;;3.35;1.10;;;;;;;;;;5066784;28;41113;-72
2023/12/25 00:39:18;;;;;;;6.53;1.20;;;;;;;;;;5068487;28;41693;-71
2023/12/25 00:41:46;;;;;;;10.48;1.88;;;;;;;;;;5050211;28;39959;-71
2023/12/25 00:44:14;;;;;;;4.78;1.23;;;;;;;;;;5068637;28;42686;-72
2023/12/25 00:46:42;;;;;;;4.90;1.25;;;;;;;;;;5067973;28;41534;-71
2023/12/25 00:49:12;;;;;;;4.43;1.33;;;;;;;;;;5068620;28;41209;-71
2023/12/25 00:51:40;;;;;;;2.95;1.13;;;;;;;;;;5068767;28;41101;-72
2023/12/25 00:54:08;;;;;;;5.60;1.20;;;;;;;;;;5035759;28;31771;-71
2023/12/25 00:56:36;;;;;;;5.40;1.15;;;;;;;;;;5051215;28;41300;-72
2023/12/25 00:59:04;;;;;;;1.92;0.82;;;;;;;;;;5050144;28;42049;-71
2023/12/25 01:01:32;;;;;;;2.95;1.00;;;;;;;;;;5060346;28;41262;-72
2023/12/25 01:04:00;;;;;;;3.25;0.90;;;;;;;;;;5047951;28;41721;-72
2023/12/25 01:06:29;;;;;;;3.38;0.68;;;;;;;;;;5061889;28;42082;-72
2023/12/25 01:08:58;;;;;;;2.45;0.80;;;;;;;;;;5047130;28;42371;-72
2023/12/25 01:11:27;;;;;;;3.92;1.30;;;;;;;;;;5054962;28;41353;-71
2023/12/25 01:13:55;;;;;;;4.95;1.02;;;;;;;;;;5068073;28;42121;-71
2023/12/25 01:16:24;;;;;;;3.78;1.00;;;;;;;;;;5068342;28;41556;-71
2023/12/25 01:18:52;;;;;;;3.47;0.90;;;;;;;;;;5059353;28;41736;-72
2023/12/25 01:21:20;;;;;;;2.03;0.88;;;;;;;;;;5062697;28;41254;-71
2023/12/25 01:23:49;;;;;;;2.75;1.10;;;;;;;;;;5068267;28;41446;-72
2023/12/25 01:26:18;;;;;;;3.83;1.42;;;;;;;;;;5053914;28;42204;-71
2023/12/25 01:28:46;;;;;;;4.07;1.20;;;;;;;;;;5067753;28;42254;-72
2023/12/25 01:31:14;;;;;;;2.72;1.13;;;;;;;;;;5049924;28;40286;-72
2023/12/25 01:33:42;;;;;;;2.15;0.90;;;;;;;;;;5048647;28;41994;-71
2023/12/25 01:36:10;;;;;;;4.38;0.90;;;;;;;;;;5059327;28;41221;-71
2023/12/25 01:38:38;;;;;;;3.22;0.90;;;;;;;;;;5067737;28;41739;-72
2023/12/25 01:41:07;;;;;;;2.88;0.80;;;;;;;;;;5067135;28;42280;-72
2023/12/25 01:43:45;;;;;;;5.68;0.85;;;;;;;;;;5062513;28;41156;-71
2023/12/25 01:46:14;;;;;;;2.70;1.05;;;;;;;;;;5067979;28;41746;-72
2023/12/25 01:48:42;;;;;;;5.57;1.00;;;;;;;;;;5067127;28;41943;-72
2023/12/25 01:51:10;;;;;;;3.72;0.98;;;;;;;;;;5066953;28;41489;-72
2023/12/25 01:53:38;;;;;;;2.53;0.85;;;;;;;;;;5037856;28;40556;-71
2023/12/25 01:56:08;;;;;;;2.35;0.80;;;;;;;;;;5065596;28;41504;-72
2023/12/25 01:58:35;;;;;;;3.30;0.88;;;;;;;;;;5050219;28;41315;-71
2023/12/25 02:01:04;;;;;;;2.83;0.90;;;;;;;;;;5042127;28;40363;-71
2023/12/25 02:03:32;;;;;;;3.60;0.90;;;;;;;;;;5049587;28;39939;-71
2023/12/25 02:06:00;;;;;;;3.75;1.25;;;;;;;;;;5067092;28;43716;-73
2023/12/25 02:08:28;;;;;;;2.35;0.95;;;;;;;;;;5048249;28;39997;-71
2023/12/25 02:11:02;;;;;;;2.63;0.80;;;;;;;;;;5048135;28;40350;-71
2023/12/25 02:13:31;;;;;;;3.88;0.93;;;;;;;;;;5067285;28;41967;-71
2023/12/25 02:16:02;;;;;;;2.63;0.70;;;;;;;;;;5048199;28;40886;-72
2023/12/25 02:18:31;;;;;;;3.45;0.95;;;;;;;;;;5049269;28;40263;-71
2023/12/25 02:20:59;;;;;;;5.13;1.20;;;;;;;;;;5067302;28;41689;-72
2023/12/25 02:23:27;;;;;;;3.10;1.00;;;;;;;;;;5067545;28;41560;-72
2023/12/25 02:25:57;;;;;;;2.45;0.95;;;;;;;;;;5048077;28;41357;-71
2023/12/25 02:28:25;;;;;;;3.90;0.90;;;;;;;;;;5062444;28;42364;-71
2023/12/25 02:30:53;;;;;;;3.10;1.30;;;;;;;;;;5063971;28;42643;-71
2023/12/25 02:33:21;;;;;;;4.50;1.42;;;;;;;;;;5066270;28;42747;-72
2023/12/25 02:35:49;;;;;;;2.35;0.80;;;;;;;;;;5056366;28;41277;-72
2023/12/25 02:38:17;;;;;;;3.75;1.33;;;;;;;;;;5062432;28;41647;-72
2023/12/25 02:40:46;;;;;;;5.28;1.50;;;;;;;;;;5067320;28;41889;-72
2023/12/25 02:43:15;;;;;;;5.88;1.25;;;;;;;;;;5049052;28;40906;-71
2023/12/25 02:45:43;;;;;;;3.72;1.20;;;;;;;;;;5045796;28;40859;-72
2023/12/25 02:48:12;;;;;;;14.30;1.25;;;;;;;;;;5066896;28;41364;-72
2023/12/25 02:50:40;;;;;;;6.28;1.15;;;;;;;;;;5048184;28;40890;-71
2023/12/25 02:53:08;;;;;;;2.53;0.90;;;;;;;;;;5047737;28;41398;-71
2023/12/25 02:55:37;;;;;;;7.28;1.80;;;;;;;;;;5066400;28;42308;-71
2023/12/25 02:58:05;;;;;;;7.95;1.45;;;;;;;;;;5066756;28;41721;-72
2023/12/25 03:00:35;;;;;;;2.65;1.00;;;;;;;;;;5064927;28;43203;-71
2023/12/25 03:03:03;;;;;;;5.63;1.40;;;;;;;;;;5048283;28;40683;-72
2023/12/25 03:05:31;;;;;;;3.55;1.00;;;;;;;;;;5066630;28;43061;-72
2023/12/25 03:07:59;;;;;;;1.80;0.80;;;;;;;;;;5065749;28;42278;-72
2023/12/25 03:10:27;;;;;;;2.67;0.77;;;;;;;;;;5066468;28;41267;-72
2023/12/25 03:12:55;;;;;;;2.80;0.98;;;;;;;;;;5059101;28;42049;-71
2023/12/25 03:15:23;;;;;;;1.67;0.85;;;;;;;;;;5060091;28;41231;-71
2023/12/25 03:17:52;;;;;;;2.85;0.98;;;;;;;;;;5053308;28;41545;-71
2023/12/25 03:20:22;;;;;;;3.55;0.80;;;;;;;;;;5066244;28;42708;-72
2023/12/25 03:22:50;;;;;;;2.97;1.10;;;;;;;;;;5048039;28;40212;-71
2023/12/25 03:25:18;;;;;;;3.30;0.75;;;;;;;;;;5067140;28;42795;-72
2023/12/25 03:27:46;;;;;;;2.95;0.80;;;;;;;;;;5065398;28;42379;-72
2023/12/25 03:30:14;;;;;;;3.45;1.15;;;;;;;;;;5048142;28;40658;-71
2023/12/25 03:32:42;;;;;;;4.50;0.88;;;;;;;;;;5066030;28;43246;-71
2023/12/25 03:35:12;;;;;;;2.70;0.75;;;;;;;;;;5065687;28;40764;-72
2023/12/25 03:37:40;;;;;;;2.30;0.95;;;;;;;;;;5048263;28;39940;-72
2023/12/25 03:40:08;;;;;;;1.27;0.68;;;;;;;;;;5047804;28;41653;-72
2023/12/25 03:42:36;;;;;;;2.03;0.90;;;;;;;;;;5065741;28;41244;-71
2023/12/25 03:45:04;;;;;;;3.10;0.80;;;;;;;;;;5052115;28;41844;-72
2023/12/25 03:47:32;;;;;;;1.98;0.77;;;;;;;;;;5048057;28;41153;-72
2023/12/25 03:50:00;;;;;;;2.30;0.73;;;;;;;;;;5046621;28;41310;-72
2023/12/25 03:52:29;;;;;;;5.72;1.40;;;;;;;;;;5066194;28;42826;-72
2023/12/25 03:54:57;;;;;;;3.15;1.05;;;;;;;;;;5047823;28;39813;-72
2023/12/25 03:57:25;;;;;;;4.43;1.10;;;;;;;;;;5040066;28;40112;-72
2023/12/25 03:59:53;;;;;;;5.40;1.30;;;;;;;;;;5041696;28;41808;-72
2023/12/25 04:02:21;;;;;;;3.70;1.17;;;;;;;;;;5052221;28;42099;-72
2023/12/25 04:04:49;;;;;;;2.88;1.02;;;;;;;;;;5065370;28;41420;-72
2023/12/25 04:07:17;;;;;;;2.83;1.00;;;;;;;;;;5049499;28;40893;-72
2023/12/25 04:09:47;;;;;;;4.63;1.83;;;;;;;;;;5066204;28;41758;-72
2023/12/25 04:12:15;;;;;;;5.72;1.40;;;;;;;;;;5050688;28;40234;-72
2023/12/25 04:14:43;;;;;;;4.57;1.30;;;;;;;;;;5069381;28;41559;-71
2023/12/25 04:17:11;;;;;;;9.05;1.77;;;;;;;;;;5068553;28;41524;-71
2023/12/25 04:19:41;;;;;;;8.13;1.58;;;;;;;;;;5069862;28;42110;-72
2023/12/25 04:22:09;;;;;;;4.75;1.08;;;;;;;;;;5050199;28;39955;-72
2023/12/25 04:24:37;;;;;;;6.28;1.60;;;;;;;;;;5069124;28;42314;-72
2023/12/25 04:27:06;;;;;;;7.30;1.50;;;;;;;;;;5055503;28;42488;-71
2023/12/25 04:29:34;;;;;;;6.05;1.52;;;;;;;;;;5047145;28;39695;-72
2023/12/25 04:32:02;;;;;;;5.32;1.25;;;;;;;;;;5050185;28;39543;-72
2023/12/25 04:34:30;;;;;;;7.15;1.88;;;;;;;;;;5054737;28;40825;-71
2023/12/25 04:36:58;;;;;;;6.40;1.95;;;;;;;;;;5043132;28;40092;-72
2023/12/25 04:39:26;;;;;;;7.63;1.77;;;;;;;;;;5038103;28;42012;-71
2023/12/25 04:41:54;;;;;;;4.28;1.40;;;;;;;;;;5080653;28;39938;-71
2023/12/25 04:44:23;;;;;;;3.13;1.00;;;;;;;;;;5068630;28;42644;-71
2023/12/25 04:46:52;;;;;;;7.95;1.45;;;;;;;;;;5050082;28;40733;-72
2023/12/25 04:49:20;;;;;;;4.38;1.17;;;;;;;;;;5050164;28;41240;-72
2023/12/25 04:51:48;;;;;;;4.40;1.60;;;;;;;;;;5049740;28;40228;-72
2023/12/25 04:54:17;;;;;;;4.47;1.60;;;;;;;;;;5058625;28;41550;-72
2023/12/25 04:56:45;;;;;;;4.57;1.20;;;;;;;;;;5048091;28;40332;-72
2023/12/25 04:59:13;;;;;;;3.95;0.98;;;;;;;;;;5060777;28;42063;-72
2023/12/25 05:01:42;;;;;;;6.07;1.10;;;;;;;;;;5068749;28;42104;-72
2023/12/25 05:04:10;;;;;;;2.33;0.90;;;;;;;;;;5067203;28;41724;-72
2023/12/25 05:06:38;;;;;;;8.50;1.73;;;;;;;;;;5049007;28;40308;-72
2023/12/25 05:09:06;;;;;;;6.50;1.42;;;;;;;;;;5067874;28;40786;-71
2023/12/25 05:11:34;;;;;;;6.75;1.40;;;;;;;;;;5050125;28;40798;-72
2023/12/25 05:14:02;;;;;;;6.45;1.45;;;;;;;;;;5048833;28;40626;-72
2023/12/25 05:16:30;;;;;;;2.72;0.90;;;;;;;;;;5068211;28;43200;-72
2023/12/25 05:18:59;;;;;;;4.00;1.23;;;;;;;;;;5047520;28;41905;-72
2023/12/25 05:21:27;;;;;;;4.05;1.05;;;;;;;;;;5030882;28;40912;-72
2023/12/25 05:23:55;;;;;;;4.10;1.23;;;;;;;;;;5066425;28;41475;-72
2023/12/25 05:26:25;;;;;;;3.08;1.25;;;;;;;;;;5064027;28;41736;-72
2023/12/25 05:28:58;;;;;;;3.78;1.33;;;;;;;;;;5062828;28;42343;-71
2023/12/25 05:31:27;;;;;;;4.55;1.13;;;;;;;;;;5054888;28;43020;-71
2023/12/25 05:34:05;;;;;;;4.10;1.00;;;;;;;;;;5047708;28;42551;-71
2023/12/25 05:36:33;;;;;;;3.92;1.15;;;;;;;;;;5062232;28;41366;-71
2023/12/25 05:39:01;;;;;;;4.50;1.08;;;;;;;;;;5068419;28;42745;-72
2023/12/25 05:41:41;;;;;;;4.82;1.15;;;;;;;;;;5064015;28;40862;-72
2023/12/25 05:44:09;;;;;;;4.63;1.42;;;;;;;;;;5067913;28;41357;-72
2023/12/25 05:46:37;;;;;;;3.58;1.60;;;;;;;;;;5082523;28;41612;-72
2023/12/25 05:49:06;;;;;;;3.95;1.10;;;;;;;;;;5058279;28;41162;-71
2023/12/25 05:51:34;;;;;;;4.97;1.05;;;;;;;;;;5063057;28;42425;-71
2023/12/25 05:54:02;;;;;;;4.65;1.58;;;;;;;;;;5067457;28;41361;-72
2023/12/25 05:56:30;;;;;;;2.85;1.15;;;;;;;;;;5064702;28;42310;-71
2023/12/25 05:58:58;;;;;;;4.57;1.40;;;;;;;;;;5054325;28;42386;-71
2023/12/25 06:01:26;;;;;;;2.63;0.82;;;;;;;;;;5068216;28;42327;-72
2023/12/25 06:03:54;;;;;;;3.45;1.15;;;;;;;;;;5067008;28;41379;-71
2023/12/25 06:06:23;;;;;;;7.70;1.83;;;;;;;;;;5067981;28;42080;-72
2023/12/25 06:08:51;;;;;;;3.70;1.20;;;;;;;;;;5066877;28;41276;-72
2023/12/25 06:11:19;;;;;;;3.13;1.10;;;;;;;;;;5067160;28;41726;-72
2023/12/25 06:13:47;;;;;;;3.92;1.20;;;;;;;;;;5067109;28;42331;-72
2023/12/25 06:16:15;;;;;;;2.78;1.20;;;;;;;;;;5066924;28;40962;-72
2023/12/25 06:18:43;;;;;;;2.33;0.95;;;;;;;;;;5050957;28;39878;-72
2023/12/25 06:21:13;;;;;;;4.15;1.40;;;;;;;;;;5066135;28;41663;-72
2023/12/25 06:23:43;;;;;;;3.80;1.13;;;;;;;;;;5066646;28;42811;-71
2023/12/25 06:26:11;;;;;;;3.22;1.27;;;;;;;;;;5063135;28;43141;-72
2023/12/25 06:28:39;;;;;;;7.53;1.58;;;;;;;;;;5063484;28;42034;-71
2023/12/25 06:31:07;;;;;;;3.83;1.00;;;;;;;;;;5064854;28;42018;-71
2023/12/25 06:33:35;;;;;;;5.88;1.50;;;;;;;;;;5067681;28;42146;-72
2023/12/25 06:36:04;;;;;;;3.60;1.08;;;;;;;;;;5065180;28;41566;-72
2023/12/25 06:38:32;;;;;;;4.00;1.02;;;;;;;;;;5053438;28;42650;-72
2023/12/25 06:41:03;;;;;;;9.98;1.23;;;;;;;;;;5048550;28;40597;-72
2023/12/25 06:43:31;;;;;;;3.25;1.23;;;;;;;;;;5064755;28;41228;-72
2023/12/25 06:45:59;;;;;;;3.17;0.90;;;;;;;;;;5065434;28;43006;-72
2023/12/25 06:48:27;;;;;;;3.05;1.02;;;;;;;;;;5067565;28;41128;-71
2023/12/25 06:50:56;;;;;;;5.95;1.15;;;;;;;;;;5066787;28;41482;-71
2023/12/25 06:53:24;;;;;;;4.72;1.20;;;;;;;;;;5066289;28;41629;-72
2023/12/25 06:55:52;;;;;;;3.63;1.13;;;;;;;;;;5067284;28;42065;-71
2023/12/25 06:58:21;;;;;;;4.10;1.00;;;;;;;;;;5066800;28;41352;-72
2023/12/25 07:00:49;;;;;;;3.00;1.10;;;;;;;;;;5065822;28;41660;-72
2023/12/25 07:03:18;;;;;;;5.60;0.98;;;;;;;;;;5067439;28;42039;-72
2023/12/25 07:05:48;;;;;;;4.03;1.20;;;;;;;;;;5066187;28;41135;-72
2023/12/25 07:08:17;;;;;;;3.33;0.85;;;;;;;;;;5066869;28;41173;-72
2023/12/25 07:10:46;;;;;;;5.53;1.10;;;;;;;;;;5066733;28;41271;-71
2023/12/25 07:13:15;;;;;;;3.17;1.23;;;;;;;;;;5065431;28;42715;-72
2023/12/25 07:15:45;;;;;;;2.97;0.75;;;;;;;;;;5065782;28;42042;-72
2023/12/25 07:18:13;;;;;;;2.28;1.02;;;;;;;;;;5066602;28;41085;-71
2023/12/25 07:20:41;;;;;;;3.33;1.35;;;;;;;;;;5065162;28;42833;-72
2023/12/25 07:23:10;;;;;;;4.05;1.20;;;;;;;;;;5066794;28;41321;-72
2023/12/25 07:25:38;;;;;;;2.30;0.82;;;;;;;;;;5066679;28;41475;-72
2023/12/25 07:28:06;;;;;;;5.20;1.25;;;;;;;;;;5058740;28;42014;-72
2023/12/25 07:30:34;;;;;;;4.05;1.10;;;;;;;;;;5058602;28;41261;-71
2023/12/25 07:33:03;;;;;;;3.25;0.82;;;;;;;;;;5041301;28;41432;-72
2023/12/25 07:35:32;;;;;;;3.85;0.90;;;;;;;;;;5056914;28;40871;-73
2023/12/25 07:38:00;;;;;;;3.10;1.00;;;;;;;;;;5063476;28;42485;-74
2023/12/25 07:40:28;;;;;;;5.70;1.15;;;;;;;;;;5074736;28;42821;-74
2023/12/25 07:42:56;;;;;;;3.38;0.90;;;;;;;;;;5073739;28;41934;-74
2023/12/25 07:45:24;;;;;;;3.03;1.00;;;;;;;;;;5076081;28;41840;-71
2023/12/25 07:47:52;;;;;;;3.75;1.05;;;;;;;;;;5075978;28;42124;-72
2023/12/25 07:50:22;;;;;;;3.10;1.08;;;;;;;;;;5069894;28;41485;-74
2023/12/25 07:52:51;;;;;;;3.67;1.05;;;;;;;;;;5080591;28;42217;-74
2023/12/25 07:55:19;;;;;;;4.50;1.17;;;;;;;;;;5069043;28;41059;-74
2023/12/25 07:57:47;;;;;;;2.47;1.00;;;;;;;;;;5071011;28;42714;-73
2023/12/25 08:00:17;;;;;;;2.58;0.90;;;;;;;;;;5071454;28;42084;-73
2023/12/25 08:02:45;;;;;;;5.38;1.10;;;;;;;;;;5068761;28;41527;-73
2023/12/25 08:05:14;;;;;;;2.08;0.75;;;;;;;;;;5049781;28;40069;-73
2023/12/25 08:07:43;;;;;;;3.15;0.80;;;;;;;;;;5076939;28;41624;-74
2023/12/25 08:10:11;;;;;;;4.30;1.00;;;;;;;;;;5074362;28;42188;-71
2023/12/25 08:12:42;;;;;;;1.85;0.70;;;;;;;;;;5074739;28;43219;-72
2023/12/25 08:15:11;;;;;;;4.40;1.00;;;;;;;;;;5075531;28;41914;-71
2023/12/25 08:17:39;;;;;;;2.67;0.73;;;;;;;;;;5066955;28;41069;-71
2023/12/25 08:20:07;;;;;;;2.42;0.77;;;;;;;;;;5069576;28;43652;-72
2023/12/25 08:22:35;;;;;;;5.60;1.33;;;;;;;;;;5067175;28;40987;-72
2023/12/25 08:25:05;;;;;;;3.67;0.90;;;;;;;;;;5065121;28;42488;-72
2023/12/25 08:27:33;;;;;;;3.03;1.05;;;;;;;;;;5061776;28;41480;-72
2023/12/25 08:30:01;;;;;;;3.35;0.95;;;;;;;;;;5067006;28;41317;-72
2023/12/25 08:32:29;;;;;;;3.42;0.80;;;;;;;;;;5068141;28;41838;-72
2023/12/25 08:34:57;;;;;;;4.93;0.85;;;;;;;;;;5068223;28;41935;-72
2023/12/25 08:37:25;;;;;;;4.05;0.90;;;;;;;;;;5066748;28;42361;-72
2023/12/25 08:39:53;;;;;;;2.85;0.90;;;;;;;;;;5065807;28;42724;-75
2023/12/25 08:42:22;;;;;;;13.45;1.50;;;;;;;;;;5060174;28;40752;-76
2023/12/25 08:44:50;;;;;;;8.82;1.10;;;;;;;;;;5064471;28;41892;-76
2023/12/25 08:47:18;;;;;;;4.53;0.70;;;;;;;;;;5065678;28;42010;-75
2023/12/25 08:49:46;;;;;;;6.00;1.15;;;;;;;;;;5067665;28;40981;-77
2023/12/25 08:52:14;;;;;;;6.72;1.30;;;;;;;;;;5058313;28;42763;-77
2023/12/25 08:54:42;;;;;;;9.25;1.33;;;;;;;;;;5066963;28;41724;-78
2023/12/25 08:57:10;;;;;;;4.10;0.63;;;;;;;;;;5066131;28;42393;-79
2023/12/25 08:59:40;;;;;;;3.72;0.90;;;;;;;;;;5068415;28;42837;-76
2023/12/25 09:02:08;;;;;;;6.22;1.00;;;;;;;;;;5064815;28;41243;-75
2023/12/25 09:04:36;;;;;;;6.63;1.20;;;;;;;;;;5066105;28;41096;-79
2023/12/25 09:07:04;;;;;;;7.72;0.80;;;;;;;;;;5068684;28;42060;-77
2023/12/25 09:09:32;;;;;;;2.33;0.73;;;;;;;;;;5062407;28;41621;-79
2023/12/25 09:12:00;;;;;;;2.85;0.90;;;;;;;;;;5078125;28;41670;-77
2023/12/25 09:14:28;;;;;;;9.15;0.98;;;;;;;;;;5083822;28;42259;-79
2023/12/25 09:16:57;;;;;;;4.72;0.82;;;;;;;;;;5068561;28;41078;-76
2023/12/25 09:19:25;;;;;;;10.52;1.10;;;;;;;;;;5056952;28;41666;-77
2023/12/25 09:21:53;;;;;;;8.27;1.42;;;;;;;;;;5044583;28;41092;-75
2023/12/25 09:24:22;;;;;;;3.50;0.90;;;;;;;;;;5066401;28;41676;-76
2023/12/25 09:26:50;;;;;;;3.80;1.15;;;;;;;;;;5066768;28;42017;-76
2023/12/25 09:29:18;;;;;;;14.07;1.35;;;;;;;;;;5060444;28;41004;-77
2023/12/25 09:31:46;;;;;;;6.47;1.00;;;;;;;;;;5068154;28;42201;-78
2023/12/25 09:34:16;;;;;;;3.92;0.90;;;;;;;;;;5067689;28;41875;-79
2023/12/25 09:36:44;;;;;;;3.30;1.00;;;;;;;;;;5066803;28;41964;-78
2023/12/25 09:39:12;;;;;;;6.60;0.90;;;;;;;;;;5068182;28;41456;-77
2023/12/25 09:41:40;;;;;;;2.78;0.80;;;;;;;;;;5063035;28;42009;-78
2023/12/25 09:44:08;;;;;;;3.47;0.70;;;;;;;;;;5068001;28;41636;-76
2023/12/25 09:46:36;;;;;;;4.43;0.80;;;;;;;;;;5068119;28;42103;-76
2023/12/25 09:49:04;;;;;;;11.02;1.02;;;;;;;;;;5063744;28;40918;-76
2023/12/25 09:51:33;;;;;;;9.98;1.25;;;;;;;;;;5064723;28;41318;-75
2023/12/25 09:54:01;;;;;;;9.38;1.77;;;;;;;;;;5065411;28;42852;-75
2023/12/25 09:56:29;;;;;;;5.63;0.90;;;;;;;;;;5065038;28;41971;-75
2023/12/25 09:58:57;;;;;;;5.57;1.83;;;;;;;;;;5066561;28;41336;-76
2023/12/25 10:01:25;;;;;;;10.95;3.10;;;;;;;;;;5067068;28;40878;-75
2023/12/25 10:03:53;;;;;;;5.07;3.35;;;;;;;;;;5053242;28;41663;-75
2023/12/25 10:06:21;;;;;;;7.30;4.00;;;;;;;;;;5056893;28;42677;-75
2023/12/25 10:08:51;;;;;;;6.18;2.30;;;;;;;;;;5066128;28;41317;-75
2023/12/25 10:11:19;;;;;;;8.20;2.90;;;;;;;;;;5067133;28;42632;-75
2023/12/25 10:13:47;;;;;;;6.00;3.05;;;;;;;;;;5067550;28;41750;-75
2023/12/25 10:16:15;;;;;;;3.63;1.42;;;;;;;;;;5072666;28;41133;-75
2023/12/25 10:18:43;;;;;;;6.85;2.47;;;;;;;;;;5074605;28;41880;-75
2023/12/25 10:21:11;;;;;;;5.15;1.88;;;;;;;;;;5073713;28;41868;-75
2023/12/25 10:23:39;;;;;;;6.40;2.55;;;;;;;;;;5074602;28;41249;-75
2023/12/25 10:26:08;;;;;;;7.50;2.90;;;;;;;;;;5063910;28;42638;-73
2023/12/25 10:28:36;;;;;;;3.08;1.92;;;;;;;;;;5078462;28;41294;-74
2023/12/25 10:31:05;;;;;;;4.80;2.40;;;;;;;;;;5069380;28;41533;-75
2023/12/25 10:33:33;;;;;;;5.18;1.63;;;;;;;;;;5067247;28;43207;-74
2023/12/25 10:36:03;;;;;;;6.30;1.45;;;;;;;;;;5064980;28;40960;-74
2023/12/25 10:38:32;;;;;;;5.40;1.70;;;;;;;;;;5055544;28;42249;-75
2023/12/25 10:41:06;;;;;;;6.22;1.70;;;;;;;;;;5067116;28;41750;-76
2023/12/25 10:43:35;;;;;;;3.35;1.52;;;;;;;;;;5066834;28;41803;-78
2023/12/25 10:46:04;;;;;;;3.45;1.38;;;;;;;;;;5068292;28;42341;-77
2023/12/25 10:48:30;;;;;;;3.90;1.45;;;;;;;;;;5066102;28;41966;-76
2023/12/25 10:50:59;;;;;;;3.83;0.95;;;;;;;;;;5065535;28;41685;-73
2023/12/25 10:53:27;;;;;;;5.93;1.67;;;;;;;;;;5057592;28;42249;-74
2023/12/25 10:55:55;;;;;;;3.45;1.55;;;;;;;;;;5055546;28;40860;-75
2023/12/25 10:58:23;;;;;;;2.38;1.23;;;;;;;;;;5066340;28;42240;-72
2023/12/25 11:00:53;;;;;;;2.92;1.38;;;;;;;;;;5067032;28;42673;-73
2023/12/25 11:03:21;;;;;;;3.97;1.02;;;;;;;;;;5054472;28;42316;-74
2023/12/25 11:05:49;;;;;;;2.63;0.85;;;;;;;;;;5064415;28;41719;-74
2023/12/25 11:08:18;;;;;;;2.17;0.90;;;;;;;;;;5046419;28;40159;-73
2023/12/25 11:11:02;;;;;;;6.32;1.30;;;;;;;;;;5065711;28;42376;-73
2023/12/25 11:13:30;;;;;;;1.10;0.60;;;;;;;;;;5079915;28;42888;-74
2023/12/25 11:15:59;;;;;;;5.00;1.73;;;;;;;;;;5069097;28;42852;-74
2023/12/25 11:18:27;;;;;;;1.42;0.60;;;;;;;;;;5061519;28;41163;-75
2023/12/25 11:21:01;;;;;;;1.88;1.17;;;;;;;;;;5061669;28;42185;-74
2023/12/25 11:23:30;;;;;;;2.55;0.90;;;;;;;;;;5062973;28;40716;-77
2023/12/25 11:25:59;;;;;;;3.00;1.00;;;;;;;;;;5065817;28;41408;-74
2023/12/25 11:28:27;;;;;;;3.75;0.90;;;;;;;;;;5063257;28;32945;-74
2023/12/25 11:30:55;;;;;;;1.83;0.90;;;;;;;;;;5068446;28;41661;-75
2023/12/25 11:33:26;;;;;;;0.93;0.43;;;;;;;;;;5065807;28;42099;-73
2023/12/25 11:35:54;;;;;;;3.47;1.20;;;;;;;;;;5067002;28;40670;-73
2023/12/25 11:38:29;;;;;;;4.72;0.75;;;;;;;;;;5069524;28;42174;-72
2023/12/25 11:41:01;;;;;;;3.83;0.90;;;;;;;;;;5069735;28;41587;-70
2023/12/25 11:43:30;;;;;;;5.93;0.93;;;;;;;;;;5051036;28;41846;-70
2023/12/25 11:45:58;;;;;;;0.90;0.52;;;;;;;;;;5066526;28;41559;-72
2023/12/25 11:48:29;;;;;;;2.10;0.80;;;;;;;;;;5067882;28;41636;-71
2023/12/25 11:51:01;;;;;;;1.55;0.57;;;;;;;;;;5070178;28;41863;-71
2023/12/25 11:53:35;;;;;;;1.58;0.55;;;;;;;;;;5067134;28;41976;-71
2023/12/25 11:56:03;;;;;;;0.90;0.60;;;;;;;;;;5066106;28;42023;-70
2023/12/25 11:58:31;;;;;;;1.63;0.60;;;;;;;;;;5060445;28;42657;-72
2023/12/25 12:00:59;;;;;;;3.60;0.77;;;;;;;;;;5063477;28;42396;-72
2023/12/25 12:03:29;;;;;;;1.73;0.60;;;;;;;;;;5062218;28;41223;-70
2023/12/25 12:05:57;;;;;;;3.22;0.50;;;;;;;;;;5063420;28;41868;-70
2023/12/25 12:08:26;;;;;;;1.02;0.60;;;;;;;;;;5065345;28;43056;-71
2023/12/25 12:10:54;;;;;;;1.40;0.60;;;;;;;;;;5068861;28;41025;-71
2023/12/25 12:13:22;;;;;;;1.75;0.73;;;;;;;;;;5064359;28;42271;-71
2023/12/25 12:15:50;;;;;;;2.25;0.50;;;;;;;;;;5064572;28;41484;-71
2023/12/25 12:18:19;;;;;;;3.97;0.52;;;;;;;;;;5067830;28;41258;-71
2023/12/25 12:20:49;;;;;;;1.58;0.73;;;;;;;;;;5060318;28;43176;-69
2023/12/25 12:23:17;;;;;;;2.50;0.63;;;;;;;;;;5068411;28;41815;-72
2023/12/25 12:25:46;;;;;;;2.35;0.57;;;;;;;;;;5056235;28;41603;-70
2023/12/25 12:28:14;;;;;;;4.10;0.60;;;;;;;;;;5060428;28;42869;-72
2023/12/25 12:30:46;;;;;;;1.42;0.57;;;;;;;;;;5055004;28;41761;-72
2023/12/25 12:33:15;;;;;;;2.08;0.60;;;;;;;;;;5069844;28;42146;-72
2023/12/25 12:35:46;;;;;;;2.15;0.60;;;;;;;;;;5058389;28;41835;-77
2023/12/25 12:38:15;;;;;;;6.20;1.00;;;;;;;;;;5068838;28;40267;-76
2023/12/25 12:40:43;;;;;;;1.35;0.43;;;;;;;;;;5069153;28;42047;-76
2023/12/25 12:43:12;;;;;;;1.20;0.47;;;;;;;;;;5049690;28;40593;-78
2023/12/25 12:45:41;;;;;;;2.20;0.70;;;;;;;;;;5059270;28;41552;-77
2023/12/25 12:48:09;;;;;;;2.90;0.60;;;;;;;;;;5052261;28;43220;-78
2023/12/25 12:50:38;;;;;;;3.40;0.93;;;;;;;;;;5064870;28;40923;-78
2023/12/25 12:53:07;;;;;;;1.80;0.55;;;;;;;;;;5063142;28;42699;-78
2023/12/25 12:55:37;;;;;;;2.88;0.63;;;;;;;;;;5068872;28;43131;-78
2023/12/25 12:58:04;;;;;;;2.20;0.57;;;;;;;;;;5055225;28;41540;-78
2023/12/25 13:00:32;;;;;;;2.13;0.73;;;;;;;;;;5067793;28;42643;-78
2023/12/25 13:03:01;;;;;;;1.88;0.73;;;;;;;;;;5068134;28;41023;-78
2023/12/25 13:05:29;;;;;;;4.10;0.60;;;;;;;;;;5063881;28;41802;-78
2023/12/25 13:08:01;;;;;;;2.60;0.70;;;;;;;;;;5047437;28;41721;-78
2023/12/25 13:10:29;;;;;;;3.97;0.85;;;;;;;;;;5065228;28;41862;-78
2023/12/25 13:12:58;;;;;;;3.08;0.60;;;;;;;;;;5047905;28;42297;-78
2023/12/25 13:15:26;;;;;;;2.50;0.68;;;;;;;;;;5029991;28;42024;-78
2023/12/25 13:17:59;;;;;;;3.47;0.75;;;;;;;;;;5066584;28;42283;-78
2023/12/25 13:20:28;;;;;;;1.50;0.60;;;;;;;;;;5063971;28;44498;-78
2023/12/25 13:22:56;;;;;;;4.35;0.80;;;;;;;;;;5066703;28;42096;-77
2023/12/25 13:25:24;;;;;;;1.95;0.60;;;;;;;;;;5067677;28;41395;-78
2023/12/25 13:27:53;;;;;;;2.92;0.50;;;;;;;;;;5064875;28;41712;-78
2023/12/25 13:30:23;;;;;;;3.05;0.50;;;;;;;;;;5057893;28;42182;-78
2023/12/25 13:32:51;;;;;;;4.65;0.40;;;;;;;;;;5054627;28;41557;-78
2023/12/25 13:35:19;;;;;;;3.22;0.70;;;;;;;;;;5059646;28;42157;-78
2023/12/25 13:37:47;;;;;;;2.83;0.65;;;;;;;;;;5064755;28;41395;-78
2023/12/25 13:40:15;;;;;;;2.88;0.80;;;;;;;;;;5049423;28;40517;-78
2023/12/25 13:42:43;;;;;;;5.88;0.90;;;;;;;;;;5068255;28;40929;-78
2023/12/25 13:45:11;;;;;;;4.35;0.80;;;;;;;;;;5067498;28;41755;-78
2023/12/25 13:47:42;;;;;;;3.10;0.55;;;;;;;;;;5067433;28;42228;-78
2023/12/25 13:50:18;;;;;;;4.10;0.60;;;;;;;;;;5063923;28;41808;-78
2023/12/25 13:52:47;;;;;;;4.75;0.95;;;;;;;;;;5065705;28;41931;-78
2023/12/25 13:55:15;;;;;;;20.40;7.88;;;;;;;;;;5067157;28;41766;-79
2023/12/25 13:57:43;;;;;;;16.30;8.85;;;;;;;;;;5068237;28;42029;-80
2023/12/25 14:00:12;;;;;;;15.70;6.65;;;;;;;;;;5065578;28;41534;-79
2023/12/25 14:02:42;;;;;;;21.00;10.30;;;;;;;;;;5061352;28;42528;-79
2023/12/25 14:05:11;;;;;;;12.77;7.03;;;;;;;;;;5065070;28;43223;-77
2023/12/25 14:07:39;;;;;;;16.50;7.22;;;;;;;;;;5063630;28;42118;-78
2023/12/25 14:10:08;;;;;;;14.57;7.10;;;;;;;;;;5065203;28;41926;-78
2023/12/25 14:12:36;;;;;;;13.13;7.80;;;;;;;;;;5063551;28;41387;-79
2023/12/25 14:15:05;;;;;;;13.15;6.32;;;;;;;;;;5056186;28;42869;-79
2023/12/25 14:17:34;;;;;;;12.27;4.75;;;;;;;;;;5067629;28;41553;-78
2023/12/25 14:20:04;;;;;;;15.88;5.57;;;;;;;;;;5042402;28;41434;-79
2023/12/25 14:22:35;;;;;;;9.32;3.75;;;;;;;;;;5049629;28;42871;-78
2023/12/25 14:25:03;;;;;;;6.35;3.17;;;;;;;;;;5058779;28;41541;-73
2023/12/25 14:27:33;;;;;;;8.65;3.45;;;;;;;;;;5042203;28;41376;-80
2023/12/25 14:30:02;;;;;;;24.88;5.00;;;;;;;;;;5067046;28;41655;-75
2023/12/25 14:32:31;;;;;;;7.60;2.63;;;;;;;;;;5061255;28;41261;-74
2023/12/25 14:34:59;;;;;;;8.73;2.78;;;;;;;;;;5066656;28;42178;-74
2023/12/25 14:37:28;;;;;;;8.57;3.85;;;;;;;;;;5066299;28;40953;-75
2023/12/25 14:39:57;;;;;;;12.63;4.20;;;;;;;;;;5065902;28;41402;-75
2023/12/25 14:42:25;;;;;;;10.52;4.47;;;;;;;;;;5066662;28;41932;-75
2023/12/25 14:44:53;;;;;;;3.85;1.98;;;;;;;;;;5066206;28;41027;-74
2023/12/25 14:47:21;;;;;;;6.72;2.60;;;;;;;;;;5065251;28;41772;-75
2023/12/25 14:49:49;;;;;;;7.40;2.88;;;;;;;;;;5063446;28;41294;-75
2023/12/25 14:52:17;;;;;;;4.63;2.50;;;;;;;;;;5047037;28;41454;-75